sensor_id;sensor_type;location;lat;lon;timestamp;pressure;altitude;pressure_sealevel;temperature;humidity
4398;BME280;2213;49.720;7.296;2023-12-20T00:01:57;98101.28;;;5.11;100.00
4398;BME280;2213;49.720;7.296;2023-12-20T00:04:26;98096.25;;;5.10;100.00
4398;BME280;2213;49.720;7.296;2023-12-20T00:06:55;98099.38;;;5.13;100.00
4398;BME280;2213;49.720;7.296;2023-12-20T00:09:23;98078.94;;;5.10;100.00
4398;BME280;2213;49.720;7.296;2023-12-20T00:11:52;98080.53;;;5.11;100.00
4398;BME280;2213;49.720;7.296;2023-12-20T00:14:20;98089.94;;;5.12;100.00
4398;BME280;2213;49.720;7.296;2023-12-20T00:16:50;98086.41;;;5.13;100.00
4398;BME280;2213;49.720;7.296;2023-12-20T00:19:19;98086.22;;;5.15;100.00
4398;BME280;2213;49.720;7.296;2023-12-20T00:21:47;98084.75;;;5.12;100.00
4398;BME280;2213;49.720;7.296;2023-12-20T00:24:16;98077.00;;;5.12;100.00
4398;BME280;2213;49.720;7.296;2023-12-20T00:26:45;98071.81;;;5.12;100.00
4398;BME280;2213;49.720;7.296;2023-12-20T00:29:13;98071.81;;;5.12;100.00
4398;BME280;2213;49.720;7.296;2023-12-20T00:31:42;98061.44;;;5.12;100.00
4398;BME280;2213;49.720;7.296;2023-12-20T00:34:12;98071.94;;;5.11;100.00
4398;BME280;2213;49.720;7.296;2023-12-20T00:36:41;98071.31;;;5.08;100.00
4398;BME280;2213;49.720;7.296;2023-12-20T00:39:09;98069.22;;;5.12;100.00
4398;BME280;2213;49.720;7.296;2023-12-20T00:41:38;98056.25;;;5.12;100.00
4398;BME280;2213;49.720;7.296;2023-12-20T00:44:06;98056.25;;;5.12;100.00
4398;BME280;2213;49.720;7.296;2023-12-20T00:46:35;98059.50;;;5.14;100.00
4398;BME280;2213;49.720;7.296;2023-12-20T00:49:03;98053.66;;;5.12;100.00
4398;BME280;2213;49.720;7.296;2023-12-20T00:51:33;98063.09;;;5.13;100.00
4398;BME280;2213;49.720;7.296;2023-12-20T00:54:02;98058.84;;;5.12;100.00
4398;BME280;2213;49.720;7.296;2023-12-20T00:56:31;98060.50;;;5.13;100.00
4398;BME280;2213;49.720;7.296;2023-12-20T00:58:59;98061.44;;;5.12;100.00
4398;BME280;2213;49.720;7.296;2023-12-20T01:01:28;98065.00;;;5.11;100.00
4398;BME280;2213;49.720;7.296;2023-12-20T01:03:56;98063.38;;;5.10;100.00
4398;BME280;2213;49.720;7.296;2023-12-20T01:06:25;98064.03;;;5.12;100.00
4398;BME280;2213;49.720;7.296;2023-12-20T01:08:55;98065.97;;;5.10;100.00
4398;BME280;2213;49.720;7.296;2023-12-20T01:11:23;98066.75;;;5.11;100.00
4398;BME280;2213;49.720;7.296;2023-12-20T01:13:52;98065.97;;;5.10;100.00
4398;BME280;2213;49.720;7.296;2023-12-20T01:16:20;98065.31;;;5.08;100.00
4398;BME280;2213;49.720;7.296;2023-12-20T01:18:49;98065.81;;;5.12;100.00
4398;BME280;2213;49.720;7.296;2023-12-20T01:21:18;98068.56;;;5.10;100.00
4398;BME280;2213;49.720;7.296;2023-12-20T01:23:46;98060.94;;;5.08;100.00
4398;BME280;2213;49.720;7.296;2023-12-20T01:26:16;98052.19;;;5.10;100.00
4398;BME280;2213;49.720;7.296;2023-12-20T01:28:45;98041.84;;;5.10;100.00
4398;BME280;2213;49.720;7.296;2023-12-20T01:31:13;98044.25;;;5.11;100.00
4398;BME280;2213;49.720;7.296;2023-12-20T01:33:42;98056.56;;;5.09;100.00
4398;BME280;2213;49.720;7.296;2023-12-20T01:36:10;98063.66;;;5.07;100.00
4398;BME280;2213;49.720;7.296;2023-12-20T01:38:39;98061.88;;;5.07;100.00
4398;BME280;2213;49.720;7.296;2023-12-20T01:41:07;98062.06;;;5.06;100.00
4398;BME280;2213;49.720;7.296;2023-12-20T01:43:37;98068.84;;;5.07;100.00
4398;BME280;2213;49.720;7.296;2023-12-20T01:46:17;98086.84;;;5.08;100.00
4398;BME280;2213;49.720;7.296;2023-12-20T01:48:47;98092.16;;;5.07;100.00
4398;BME280;2213;49.720;7.296;2023-12-20T01:51:16;98082.78;;;5.06;100.00
4398;BME280;2213;49.720;7.296;2023-12-20T01:53:45;98066.25;;;5.07;100.00
4398;BME280;2213;49.720;7.296;2023-12-20T01:56:15;98061.06;;;5.07;100.00
4398;BME280;2213;49.720;7.296;2023-12-20T01:58:47;98072.44;;;5.06;100.00
4398;BME280;2213;49.720;7.296;2023-12-20T02:01:16;98058.78;;;5.04;100.00
4398;BME280;2213;49.720;7.296;2023-12-20T02:03:46;98066.41;;;5.05;100.00
4398;BME280;2213;49.720;7.296;2023-12-20T02:06:16;98066.41;;;5.05;100.00
4398;BME280;2213;49.720;7.296;2023-12-20T02:08:46;98055.88;;;5.07;100.00
4398;BME280;2213;49.720;7.296;2023-12-20T02:11:15;98062.06;;;5.06;100.00
4398;BME280;2213;49.720;7.296;2023-12-20T02:13:45;98064.66;;;5.06;100.00
4398;BME280;2213;49.720;7.296;2023-12-20T02:16:13;98062.06;;;5.06;100.00
4398;BME280;2213;49.720;7.296;2023-12-20T02:18:43;98049.91;;;5.06;100.00
4398;BME280;2213;49.720;7.296;2023-12-20T02:21:12;98053.31;;;5.07;100.00
4398;BME280;2213;49.720;7.296;2023-12-20T02:23:42;98056.72;;;5.07;100.00
4398;BME280;2213;49.720;7.296;2023-12-20T02:26:11;98067.06;;;5.07;100.00
4398;BME280;2213;49.720;7.296;2023-12-20T02:28:41;98094.47;;;5.10;100.00
4398;BME280;2213;49.720;7.296;2023-12-20T02:31:09;98073.06;;;5.08;100.00
4398;BME280;2213;49.720;7.296;2023-12-20T02:33:38;98057.53;;;5.08;100.00
4398;BME280;2213;49.720;7.296;2023-12-20T02:36:07;98062.72;;;5.08;100.00
4398;BME280;2213;49.720;7.296;2023-12-20T02:38:35;98071.16;;;5.10;100.00
4398;BME280;2213;49.720;7.296;2023-12-20T02:41:05;98073.75;;;5.10;100.00
4398;BME280;2213;49.720;7.296;2023-12-20T02:43:33;98062.72;;;5.08;100.00
4398;BME280;2213;49.720;7.296;2023-12-20T02:46:02;98061.75;;;5.09;100.00
4398;BME280;2213;49.720;7.296;2023-12-20T02:48:31;98068.06;;;5.06;100.00
4398;BME280;2213;49.720;7.296;2023-12-20T02:50:59;98061.06;;;5.07;100.00
4398;BME280;2213;49.720;7.296;2023-12-20T02:53:28;98067.06;;;5.07;100.00
4398;BME280;2213;49.720;7.296;2023-12-20T02:55:56;98073.25;;;5.06;100.00
4398;BME280;2213;49.720;7.296;2023-12-20T02:58:26;98074.03;;;5.07;100.00
4398;BME280;2213;49.720;7.296;2023-12-20T03:00:55;98073.25;;;5.06;100.00
4398;BME280;2213;49.720;7.296;2023-12-20T03:03:23;98075.66;;;5.08;100.00
4398;BME280;2213;49.720;7.296;2023-12-20T03:05:52;98073.75;;;5.10;100.00
4398;BME280;2213;49.720;7.296;2023-12-20T03:08:20;98078.13;;;5.10;100.00
4398;BME280;2213;49.720;7.296;2023-12-20T03:10:49;98076.34;;;5.10;100.00
4398;BME280;2213;49.720;7.296;2023-12-20T03:13:18;98085.72;;;5.11;100.00
4398;BME280;2213;49.720;7.296;2023-12-20T03:15:48;98090.09;;;5.11;100.00
4398;BME280;2213;49.720;7.296;2023-12-20T03:18:16;98083.13;;;5.11;100.00
4398;BME280;2213;49.720;7.296;2023-12-20T03:20:45;98086.41;;;5.13;100.00
4398;BME280;2213;49.720;7.296;2023-12-20T03:23:15;98086.22;;;5.15;100.00
4398;BME280;2213;49.720;7.296;2023-12-20T03:25:43;98083.81;;;5.13;100.00
4398;BME280;2213;49.720;7.296;2023-12-20T03:28:14;98091.59;;;5.13;100.00
4398;BME280;2213;49.720;7.296;2023-12-20T03:30:43;98102.59;;;5.15;100.00
4398;BME280;2213;49.720;7.296;2023-12-20T03:33:13;98103.56;;;5.14;100.00
4398;BME280;2213;49.720;7.296;2023-12-20T03:35:42;98103.56;;;5.14;100.00
4398;BME280;2213;49.720;7.296;2023-12-20T03:38:10;98105.88;;;5.17;100.00
4398;BME280;2213;49.720;7.296;2023-12-20T03:40:39;98098.75;;;5.19;100.00
4398;BME280;2213;49.720;7.296;2023-12-20T03:43:08;98105.91;;;5.25;100.00
4398;BME280;2213;49.720;7.296;2023-12-20T03:45:36;98105.34;;;5.39;100.00
4398;BME280;2213;49.720;7.296;2023-12-20T03:48:06;98107.19;;;5.47;100.00
4398;BME280;2213;49.720;7.296;2023-12-20T03:50:36;98100.06;;;5.49;100.00
4398;BME280;2213;49.720;7.296;2023-12-20T03:53:04;98101.38;;;5.53;100.00
4398;BME280;2213;49.720;7.296;2023-12-20T03:55:33;98100.25;;;5.55;100.00
4398;BME280;2213;49.720;7.296;2023-12-20T03:58:01;98108.72;;;5.57;100.00
4398;BME280;2213;49.720;7.296;2023-12-20T04:00:30;98101.75;;;5.58;100.00
4398;BME280;2213;49.720;7.296;2023-12-20T04:02:58;98111.63;;;5.63;100.00
4398;BME280;2213;49.720;7.296;2023-12-20T04:05:27;98129.50;;;5.66;100.00
4398;BME280;2213;49.720;7.296;2023-12-20T04:07:57;98126.59;;;5.69;100.00
4398;BME280;2213;49.720;7.296;2023-12-20T04:10:26;98124.34;;;5.74;100.00
4398;BME280;2213;49.720;7.296;2023-12-20T04:12:55;98130.84;;;5.78;100.00
4398;BME280;2213;49.720;7.296;2023-12-20T04:15:23;98129.59;;;5.82;100.00
4398;BME280;2213;49.720;7.296;2023-12-20T04:17:52;98137.06;;;5.85;100.00
4398;BME280;2213;49.720;7.296;2023-12-20T04:20:20;98142.91;;;5.87;100.00
4398;BME280;2213;49.720;7.296;2023-12-20T04:22:49;98145.16;;;5.82;100.00
4398;BME280;2213;49.720;7.296;2023-12-20T04:25:19;98139.16;;;5.81;100.00
4398;BME280;2213;49.720;7.296;2023-12-20T04:27:47;98155.16;;;5.77;100.00
4398;BME280;2213;49.720;7.296;2023-12-20T04:30:16;98163.25;;;5.74;100.00
4398;BME280;2213;49.720;7.296;2023-12-20T04:32:44;98153.06;;;5.72;100.00
4398;BME280;2213;49.720;7.296;2023-12-20T04:35:13;98161.28;;;5.68;100.00
4398;BME280;2213;49.720;7.296;2023-12-20T04:37:42;98163.50;;;5.63;100.00
4398;BME280;2213;49.720;7.296;2023-12-20T04:40:11;98156.84;;;5.60;100.00
4398;BME280;2213;49.720;7.296;2023-12-20T04:42:42;98161.41;;;5.58;100.00
4398;BME280;2213;49.720;7.296;2023-12-20T04:45:10;98172.88;;;5.55;100.00
4398;BME280;2213;49.720;7.296;2023-12-20T04:47:42;98178.66;;;5.49;100.00
4398;BME280;2213;49.720;7.296;2023-12-20T04:50:11;98185.13;;;5.45;100.00
4398;BME280;2213;49.720;7.296;2023-12-20T04:52:41;98205.50;;;5.40;100.00
4398;BME280;2213;49.720;7.296;2023-12-20T04:55:10;98198.56;;;5.41;100.00
4398;BME280;2213;49.720;7.296;2023-12-20T04:57:38;98196.28;;;5.38;100.00
4398;BME280;2213;49.720;7.296;2023-12-20T05:00:10;98195.75;;;5.34;100.00
4398;BME280;2213;49.720;7.296;2023-12-20T05:02:39;98194.41;;;5.30;100.00
4398;BME280;2213;49.720;7.296;2023-12-20T05:05:08;98205.75;;;5.29;100.00
4398;BME280;2213;49.720;7.296;2023-12-20T05:07:37;98194.22;;;5.24;100.00
4398;BME280;2213;49.720;7.296;2023-12-20T05:10:08;98204.72;;;5.22;100.00
4398;BME280;2213;49.720;7.296;2023-12-20T05:12:36;98205.97;;;5.18;100.00
4398;BME280;2213;49.720;7.296;2023-12-20T05:15:08;98202.72;;;5.16;100.00
4398;BME280;2213;49.720;7.296;2023-12-20T05:17:36;98201.91;;;5.16;100.00
4398;BME280;2213;49.720;7.296;2023-12-20T05:20:07;98207.09;;;5.16;100.00
4398;BME280;2213;49.720;7.296;2023-12-20T05:22:36;98195.91;;;5.15;100.00
4398;BME280;2213;49.720;7.296;2023-12-20T05:25:06;98194.78;;;5.18;100.00
4398;BME280;2213;49.720;7.296;2023-12-20T05:27:37;98201.91;;;5.16;100.00
4398;BME280;2213;49.720;7.296;2023-12-20T05:30:08;98205.44;;;5.15;100.00
4398;BME280;2213;49.720;7.296;2023-12-20T05:32:37;98203.03;;;5.13;100.00
4398;BME280;2213;49.720;7.296;2023-12-20T05:35:06;98209.78;;;5.06;100.00
4398;BME280;2213;49.720;7.296;2023-12-20T05:37:34;98219.44;;;5.04;100.00
4398;BME280;2213;49.720;7.296;2023-12-20T05:40:04;98209.78;;;5.06;100.00
4398;BME280;2213;49.720;7.296;2023-12-20T05:42:33;98213.19;;;5.06;100.00
4398;BME280;2213;49.720;7.296;2023-12-20T05:45:02;98219.16;;;5.07;100.00
4398;BME280;2213;49.720;7.296;2023-12-20T05:47:32;98222.84;;;5.04;100.00
4398;BME280;2213;49.720;7.296;2023-12-20T05:50:00;98218.34;;;5.06;100.00
4398;BME280;2213;49.720;7.296;2023-12-20T05:52:29;98217.66;;;5.04;100.00
4398;BME280;2213;49.720;7.296;2023-12-20T05:54:57;98228.72;;;5.06;100.00
4398;BME280;2213;49.720;7.296;2023-12-20T05:57:28;98210.41;;;5.08;100.00
4398;BME280;2213;49.720;7.296;2023-12-20T05:59:57;98232.78;;;5.09;100.00
4398;BME280;2213;49.720;7.296;2023-12-20T06:02:25;98236.34;;;5.08;100.00
4398;BME280;2213;49.720;7.296;2023-12-20T06:04:55;98231.16;;;5.08;100.00
4398;BME280;2213;49.720;7.296;2023-12-20T06:07:25;98232.78;;;5.09;100.00
4398;BME280;2213;49.720;7.296;2023-12-20T06:09:54;98232.09;;;5.07;100.00
4398;BME280;2213;49.720;7.296;2023-12-20T06:12:22;98235.00;;;5.04;100.00
4398;BME280;2213;49.720;7.296;2023-12-20T06:14:51;98224.63;;;5.04;100.00
4398;BME280;2213;49.720;7.296;2023-12-20T06:17:19;98228.84;;;5.05;100.00
4398;BME280;2213;49.720;7.296;2023-12-20T06:19:48;98229.50;;;5.07;100.00
4398;BME280;2213;49.720;7.296;2023-12-20T06:22:18;98235.38;;;5.09;100.00
4398;BME280;2213;49.720;7.296;2023-12-20T06:24:46;98245.59;;;5.11;100.00
4398;BME280;2213;49.720;7.296;2023-12-20T06:27:15;98241.38;;;5.10;100.00
4398;BME280;2213;49.720;7.296;2023-12-20T06:29:44;98243.97;;;5.10;100.00
4398;BME280;2213;49.720;7.296;2023-12-20T06:32:12;98244.78;;;5.10;100.00
4398;BME280;2213;49.720;7.296;2023-12-20T06:34:41;98252.69;;;5.08;100.00
4398;BME280;2213;49.720;7.296;2023-12-20T06:37:10;98246.56;;;5.10;100.00
4398;BME280;2213;49.720;7.296;2023-12-20T06:39:40;98237.16;;;5.08;100.00
4398;BME280;2213;49.720;7.296;2023-12-20T06:42:09;98234.56;;;5.08;100.00
4398;BME280;2213;49.720;7.296;2023-12-20T06:44:37;98233.91;;;5.06;100.00
4398;BME280;2213;49.720;7.296;2023-12-20T06:47:08;98231.16;;;5.08;100.00
4398;BME280;2213;49.720;7.296;2023-12-20T06:49:36;98229.50;;;5.07;100.00
4398;BME280;2213;49.720;7.296;2023-12-20T06:52:05;98228.72;;;5.06;100.00
4398;BME280;2213;49.720;7.296;2023-12-20T06:54:34;98239.81;;;4.99;100.00
4398;BME280;2213;49.720;7.296;2023-12-20T06:57:04;98231.22;;;4.98;100.00
4398;BME280;2213;49.720;7.296;2023-12-20T06:59:33;98246.59;;;5.00;100.00
4398;BME280;2213;49.720;7.296;2023-12-20T07:02:01;98251.97;;;4.98;100.00
4398;BME280;2213;49.720;7.296;2023-12-20T07:04:30;98260.38;;;5.00;100.00
4398;BME280;2213;49.720;7.296;2023-12-20T07:07:00;98251.97;;;4.98;100.00
4398;BME280;2213;49.720;7.296;2023-12-20T07:09:28;98256.63;;;4.95;100.00
4398;BME280;2213;49.720;7.296;2023-12-20T07:11:57;98247.13;;;4.86;100.00
4398;BME280;2213;49.720;7.296;2023-12-20T07:14:27;98260.53;;;4.81;100.00
4398;BME280;2213;49.720;7.296;2023-12-20T07:16:56;98259.41;;;4.84;100.00
4398;BME280;2213;49.720;7.296;2023-12-20T07:19:24;98260.66;;;4.80;100.00
4398;BME280;2213;49.720;7.296;2023-12-20T07:21:53;98269.53;;;4.77;100.00
4398;BME280;2213;49.720;7.296;2023-12-20T07:24:22;98274.31;;;4.72;100.00
4398;BME280;2213;49.720;7.296;2023-12-20T07:26:50;98274.19;;;4.74;100.00
4398;BME280;2213;49.720;7.296;2023-12-20T07:29:19;98268.91;;;4.66;100.00
4398;BME280;2213;49.720;7.296;2023-12-20T07:31:49;98274.78;;;4.68;100.00
4398;BME280;2213;49.720;7.296;2023-12-20T07:34:19;98264.41;;;4.68;100.00
4398;BME280;2213;49.720;7.296;2023-12-20T07:36:48;98270.19;;;4.62;100.00
4398;BME280;2213;49.720;7.296;2023-12-20T07:39:16;98271.50;;;4.66;100.00
4398;BME280;2213;49.720;7.296;2023-12-20T07:41:45;98268.63;;;4.69;100.00
4398;BME280;2213;49.720;7.296;2023-12-20T07:44:14;98276.13;;;4.72;100.00
4398;BME280;2213;49.720;7.296;2023-12-20T07:46:43;98276.13;;;4.72;100.00
4398;BME280;2213;49.720;7.296;2023-12-20T07:49:13;98284.69;;;4.72;100.00
4398;BME280;2213;49.720;7.296;2023-12-20T07:51:41;98289.19;;;4.70;100.00
4398;BME280;2213;49.720;7.296;2023-12-20T07:54:10;98303.91;;;4.70;100.00
4398;BME280;2213;49.720;7.296;2023-12-20T07:56:39;98296.84;;;4.72;100.00
4398;BME280;2213;49.720;7.296;2023-12-20T07:59:07;98291.66;;;4.72;100.00
4398;BME280;2213;49.720;7.296;2023-12-20T08:01:48;98284.84;;;4.71;100.00
4398;BME280;2213;49.720;7.296;2023-12-20T08:04:19;98289.06;;;4.72;100.00
4398;BME280;2213;49.720;7.296;2023-12-20T08:06:47;98296.56;;;4.75;100.00
4398;BME280;2213;49.720;7.296;2023-12-20T08:09:17;98299.28;;;4.73;100.00
4398;BME280;2213;49.720;7.296;2023-12-20T08:11:46;98290.13;;;4.79;100.00
4398;BME280;2213;49.720;7.296;2023-12-20T08:14:15;98300.19;;;4.82;100.00
4398;BME280;2213;49.720;7.296;2023-12-20T08:16:44;98307.69;;;4.85;100.00
4398;BME280;2213;49.720;7.296;2023-12-20T08:19:12;98295.38;;;4.87;100.00
4398;BME280;2213;49.720;7.296;2023-12-20T08:21:42;98301.25;;;4.89;100.00
4398;BME280;2213;49.720;7.296;2023-12-20T08:24:11;98304.38;;;4.92;100.00
4398;BME280;2213;49.720;7.296;2023-12-20T08:26:39;98305.97;;;4.93;100.00
4398;BME280;2213;49.720;7.296;2023-12-20T08:29:08;98313.63;;;4.95;100.00
4398;BME280;2213;49.720;7.296;2023-12-20T08:31:37;98302.97;;;4.98;100.00
4398;BME280;2213;49.720;7.296;2023-12-20T08:34:05;98297.47;;;5.01;100.00
4398;BME280;2213;49.720;7.296;2023-12-20T08:36:35;98296.53;;;5.02;100.00
4398;BME280;2213;49.720;7.296;2023-12-20T08:39:05;98294.59;;;5.04;100.00
4398;BME280;2213;49.720;7.296;2023-12-20T08:41:35;98283.94;;;5.07;100.00
4398;BME280;2213;49.720;7.296;2023-12-20T08:44:04;98284.31;;;5.12;100.00
4398;BME280;2213;49.720;7.296;2023-12-20T08:46:33;98289.50;;;5.12;100.00
4398;BME280;2213;49.720;7.296;2023-12-20T08:49:01;98291.66;;;5.17;100.00
4398;BME280;2213;49.720;7.296;2023-12-20T08:51:30;98293.28;;;5.18;100.00
4398;BME280;2213;49.720;7.296;2023-12-20T08:54:00;98292.19;;;5.20;100.00
4398;BME280;2213;49.720;7.296;2023-12-20T08:56:30;98289.31;;;5.23;100.00
4398;BME280;2213;49.720;7.296;2023-12-20T08:59:00;98296.63;;;5.28;100.00
4398;BME280;2213;49.720;7.296;2023-12-20T09:01:29;98299.72;;;5.31;100.00
4398;BME280;2213;49.720;7.296;2023-12-20T09:04:00;98307.38;;;5.33;100.00
4398;BME280;2213;49.720;7.296;2023-12-20T09:06:29;98298.47;;;5.35;100.00
4398;BME280;2213;49.720;7.296;2023-12-20T09:08:58;98310.19;;;5.39;100.00
4398;BME280;2213;49.720;7.296;2023-12-20T09:11:26;98315.88;;;5.43;100.00
4398;BME280;2213;49.720;7.296;2023-12-20T09:13:57;98313.00;;;5.46;100.00
4398;BME280;2213;49.720;7.296;2023-12-20T09:16:26;98314.47;;;5.48;100.00
4398;BME280;2213;49.720;7.296;2023-12-20T09:18:54;98317.06;;;5.48;100.00
4398;BME280;2213;49.720;7.296;2023-12-20T09:21:23;98310.78;;;5.51;100.00
4398;BME280;2213;49.720;7.296;2023-12-20T09:23:51;98321.00;;;5.52;100.00
4398;BME280;2213;49.720;7.296;2023-12-20T09:26:20;98300.13;;;5.54;100.00
4398;BME280;2213;49.720;7.296;2023-12-20T09:28:49;98312.78;;;5.57;100.00
4398;BME280;2213;49.720;7.296;2023-12-20T09:31:18;98300.31;;;5.61;100.00
4398;BME280;2213;49.720;7.296;2023-12-20T09:33:47;98305.06;;;5.65;100.00
4398;BME280;2213;49.720;7.296;2023-12-20T09:36:16;98303.31;;;5.66;100.00
4398;BME280;2213;49.720;7.296;2023-12-20T09:38:45;98312.03;;;5.65;100.00
4398;BME280;2213;49.720;7.296;2023-12-20T09:41:14;98313.38;;;5.69;100.00
4398;BME280;2213;49.720;7.296;2023-12-20T09:43:42;98308.03;;;5.70;100.00
4398;BME280;2213;49.720;7.296;2023-12-20T09:46:13;98299.94;;;5.73;100.00
4398;BME280;2213;49.720;7.296;2023-12-20T09:48:46;98312.78;;;5.75;100.00
4398;BME280;2213;49.720;7.296;2023-12-20T09:51:16;98319.59;;;5.76;100.00
4398;BME280;2213;49.720;7.296;2023-12-20T09:53:46;98313.13;;;5.80;100.00
4398;BME280;2213;49.720;7.296;2023-12-20T09:56:15;98320.91;;;5.80;100.00
4398;BME280;2213;49.720;7.296;2023-12-20T09:58:44;98317.34;;;5.81;100.00
4398;BME280;2213;49.720;7.296;2023-12-20T10:01:14;98324.19;;;5.82;100.00
4398;BME280;2213;49.720;7.296;2023-12-20T10:03:43;98311.84;;;5.84;100.00
4398;BME280;2213;49.720;7.296;2023-12-20T10:06:14;98314.03;;;5.88;100.00
4398;BME280;2213;49.720;7.296;2023-12-20T10:08:43;98318.28;;;5.89;100.00
4398;BME280;2213;49.720;7.296;2023-12-20T10:11:11;98324.78;;;5.93;100.00
4398;BME280;2213;49.720;7.296;2023-12-20T10:13:41;98310.31;;;5.91;100.00
4398;BME280;2213;49.720;7.296;2023-12-20T10:16:10;98311.00;;;5.93;100.00
4398;BME280;2213;49.720;7.296;2023-12-20T10:18:39;98308.41;;;5.93;100.00
4398;BME280;2213;49.720;7.296;2023-12-20T10:21:07;98305.50;;;5.96;100.00
4398;BME280;2213;49.720;7.296;2023-12-20T10:23:39;98308.44;;;6.01;100.00
4398;BME280;2213;49.720;7.296;2023-12-20T10:26:08;98306.84;;;6.00;100.00
4398;BME280;2213;49.720;7.296;2023-12-20T10:28:37;98306.84;;;6.00;100.00
4398;BME280;2213;49.720;7.296;2023-12-20T10:31:06;98305.84;;;6.01;100.00
4398;BME280;2213;49.720;7.296;2023-12-20T10:33:35;98297.94;;;6.02;100.00
4398;BME280;2213;49.720;7.296;2023-12-20T10:36:05;98294.19;;;6.05;100.00
4398;BME280;2213;49.720;7.296;2023-12-20T10:38:35;98283.81;;;6.05;100.00
4398;BME280;2213;49.720;7.296;2023-12-20T10:41:09;98286.09;;;6.08;100.00
4398;BME280;2213;49.720;7.296;2023-12-20T10:43:40;98283.00;;;6.04;100.00
4398;BME280;2213;49.720;7.296;2023-12-20T10:46:09;98282.41;;;6.11;100.00
4398;BME280;2213;49.720;7.296;2023-12-20T10:48:40;98274.75;;;6.09;100.00
4398;BME280;2213;49.720;7.296;2023-12-20T10:51:11;98281.59;;;6.10;100.00
4398;BME280;2213;49.720;7.296;2023-12-20T10:53:41;98279.13;;;6.08;100.00
4398;BME280;2213;49.720;7.296;2023-12-20T10:56:17;98273.81;;;6.10;100.00
4398;BME280;2213;49.720;7.296;2023-12-20T10:58:47;98271.22;;;6.10;100.00
4398;BME280;2213;49.720;7.296;2023-12-20T11:01:18;98279.66;;;6.12;100.00
4398;BME280;2213;49.720;7.296;2023-12-20T11:03:50;98272.69;;;6.13;100.00
4398;BME280;2213;49.720;7.296;2023-12-20T11:06:33;98278.00;;;6.11;100.00
4398;BME280;2213;49.720;7.296;2023-12-20T11:09:20;98279.97;;;6.09;100.00
4398;BME280;2213;49.720;7.296;2023-12-20T11:12:12;98278.69;;;6.13;100.00
4398;BME280;2213;49.720;7.296;2023-12-20T11:14:48;98274.16;;;6.15;100.00
4398;BME280;2213;49.720;7.296;2023-12-20T11:17:17;98274.00;;;6.17;100.00
4398;BME280;2213;49.720;7.296;2023-12-20T11:20:08;98256.34;;;6.20;100.00
4398;BME280;2213;49.720;7.296;2023-12-20T11:22:52;98259.91;;;6.19;100.00
4398;BME280;2213;49.720;7.296;2023-12-20T11:25:21;98273.69;;;6.20;100.00
4398;BME280;2213;49.720;7.296;2023-12-20T11:28:08;98279.25;;;6.25;100.00
4398;BME280;2213;49.720;7.296;2023-12-20T11:30:42;98280.03;;;6.25;100.00
4398;BME280;2213;49.720;7.296;2023-12-20T11:33:15;98274.06;;;6.25;100.00
4398;BME280;2213;49.720;7.296;2023-12-20T11:35:46;98279.53;;;6.22;100.00
4398;BME280;2213;49.720;7.296;2023-12-20T11:38:15;98281.16;;;6.23;100.00
4398;BME280;2213;49.720;7.296;2023-12-20T11:40:44;98266.09;;;6.26;100.00
4398;BME280;2213;49.720;7.296;2023-12-20T11:43:30;98267.22;;;6.24;100.00
4398;BME280;2213;49.720;7.296;2023-12-20T11:46:03;98266.72;;;6.20;100.00
4398;BME280;2213;49.720;7.296;2023-12-20T11:48:36;98269.97;;;6.22;100.00
4398;BME280;2213;49.720;7.296;2023-12-20T11:51:09;98262.34;;;6.21;100.00
4398;BME280;2213;49.720;7.296;2023-12-20T11:53:39;98258.94;;;6.20;100.00
4398;BME280;2213;49.720;7.296;2023-12-20T11:56:07;98258.75;;;6.22;100.00
4398;BME280;2213;49.720;7.296;2023-12-20T11:58:37;98270.78;;;6.23;100.00
4398;BME280;2213;49.720;7.296;2023-12-20T12:01:06;98268.03;;;6.24;100.00
4398;BME280;2213;49.720;7.296;2023-12-20T12:03:36;98272.94;;;6.27;100.00
4398;BME280;2213;49.720;7.296;2023-12-20T12:06:05;98268.88;;;6.33;100.00
4398;BME280;2213;49.720;7.296;2023-12-20T12:08:36;98260.28;;;6.32;100.00
4398;BME280;2213;49.720;7.296;2023-12-20T12:11:05;98258.03;;;6.37;100.00
4398;BME280;2213;49.720;7.296;2023-12-20T12:13:34;98263.06;;;6.39;100.00
4398;BME280;2213;49.720;7.296;2023-12-20T12:16:05;98258.38;;;6.42;100.00
4398;BME280;2213;49.720;7.296;2023-12-20T12:18:34;98266.16;;;6.42;100.00
4398;BME280;2213;49.720;7.296;2023-12-20T12:21:04;98265.22;;;6.43;100.00
4398;BME280;2213;49.720;7.296;2023-12-20T12:23:41;98255.63;;;6.44;100.00
4398;BME280;2213;49.720;7.296;2023-12-20T12:26:10;98250.91;;;6.39;100.00
4398;BME280;2213;49.720;7.296;2023-12-20T12:28:40;98251.22;;;6.36;100.00
4398;BME280;2213;49.720;7.296;2023-12-20T12:31:15;98252.19;;;6.35;100.00
4398;BME280;2213;49.720;7.296;2023-12-20T12:33:44;98261.91;;;6.33;100.00
4398;BME280;2213;49.720;7.296;2023-12-20T12:36:13;98243.59;;;6.35;100.00
4398;BME280;2213;49.720;7.296;2023-12-20T12:38:43;98253.16;;;6.34;100.00
4398;BME280;2213;49.720;7.296;2023-12-20T12:41:13;98244.38;;;6.35;100.00
4398;BME280;2213;49.720;7.296;2023-12-20T12:43:42;98235.81;;;6.35;100.00
4398;BME280;2213;49.720;7.296;2023-12-20T12:46:11;98220.88;;;6.37;100.00
4398;BME280;2213;49.720;7.296;2023-12-20T12:48:41;98226.56;;;6.40;100.00
4398;BME280;2213;49.720;7.296;2023-12-20T12:51:13;98220.88;;;6.37;100.00
4398;BME280;2213;49.720;7.296;2023-12-20T12:53:42;98222.34;;;6.39;100.00
4398;BME280;2213;49.720;7.296;2023-12-20T12:56:13;98220.41;;;6.41;100.00
4398;BME280;2213;49.720;7.296;2023-12-20T12:58:42;98227.69;;;6.38;100.00
4398;BME280;2213;49.720;7.296;2023-12-20T13:01:11;98216.97;;;6.33;100.00
4398;BME280;2213;49.720;7.296;2023-12-20T13:03:41;98211.56;;;6.26;100.00
4398;BME280;2213;49.720;7.296;2023-12-20T13:06:10;98204.75;;;6.25;100.00
4398;BME280;2213;49.720;7.296;2023-12-20T13:08:39;98201.84;;;6.28;100.00
4398;BME280;2213;49.720;7.296;2023-12-20T13:11:07;98199.72;;;6.24;100.00
4398;BME280;2213;49.720;7.296;2023-12-20T13:13:36;98189.84;;;6.27;100.00
4398;BME280;2213;49.720;7.296;2023-12-20T13:16:06;98190.16;;;6.24;100.00
4398;BME280;2213;49.720;7.296;2023-12-20T13:18:35;98192.06;;;6.22;100.00
4398;BME280;2213;49.720;7.296;2023-12-20T13:21:06;98186.38;;;6.19;100.00
4398;BME280;2213;49.720;7.296;2023-12-20T13:23:34;98184.91;;;6.16;100.00
4398;BME280;2213;49.720;7.296;2023-12-20T13:26:07;98174.22;;;6.19;100.00
4398;BME280;2213;49.720;7.296;2023-12-20T13:28:36;98161.59;;;6.24;100.00
4398;BME280;2213;49.720;7.296;2023-12-20T13:31:04;98158.31;;;6.22;100.00
4398;BME280;2213;49.720;7.296;2023-12-20T13:33:33;98168.06;;;6.20;100.00
4398;BME280;2213;49.720;7.296;2023-12-20T13:36:02;98169.03;;;6.19;100.00